createdAt,value
2022-08-07T00:00:33.008Z,18.08
2022-08-07T00:03:20.006Z,20.23
2022-08-07T00:06:00.102Z,19.63
2022-08-07T00:08:47.004Z,17.17
2022-08-07T00:11:33.013Z,17.88
2022-08-07T00:14:30.212Z,17.00
2022-08-07T00:17:24.034Z,16.90
2022-08-07T00:20:15.625Z,18.23
2022-08-07T00:23:10.052Z,20.13
2022-08-07T00:26:18.681Z,17.92
2022-08-07T00:29:20.015Z,18.13
2022-08-07T00:32:10.029Z,18.17
2022-08-07T00:34:49.315Z,17.65
2022-08-07T00:37:47.731Z,17.90
2022-08-07T00:40:39.916Z,19.77
2022-08-07T00:43:58.909Z,17.55
2022-08-07T00:46:48.029Z,18.30
2022-08-07T00:50:20.670Z,17.08
2022-08-07T00:52:35.037Z,18.70
2022-08-07T00:55:25.540Z,19.30
2022-08-07T00:58:24.033Z,17.60
2022-08-07T01:01:13.079Z,17.92
2022-08-07T01:03:55.928Z,18.65
2022-08-07T01:06:46.025Z,18.33
2022-08-07T01:10:03.845Z,18.95
2022-08-07T01:12:29.878Z,18.83
2022-08-07T01:15:04.471Z,18.83
2022-08-07T01:17:51.062Z,19.73
2022-08-07T01:20:33.131Z,18.85
2022-08-07T01:23:20.057Z,18.05
2022-08-07T01:26:16.723Z,19.50
2022-08-07T01:29:14.073Z,19.90
2022-08-07T01:32:05.564Z,19.98
2022-08-07T01:34:47.286Z,18.83
2022-08-07T01:37:36.055Z,17.80
2022-08-07T01:40:19.044Z,20.38
2022-08-07T01:43:13.083Z,20.13
2022-08-07T01:46:03.066Z,20.25
2022-08-07T01:48:41.177Z,19.95
2022-08-07T01:52:01.852Z,17.85
2022-08-07T01:54:33.326Z,19.63
2022-08-07T01:57:28.091Z,20.65
2022-08-07T02:00:12.915Z,21.23
2022-08-07T02:03:18.554Z,17.95
2022-08-07T02:06:30.825Z,20.88
2022-08-07T02:09:52.402Z,20.45
2022-08-07T02:12:29.291Z,19.55
2022-08-07T02:15:28.020Z,20.80
2022-08-07T02:18:26.081Z,18.23
2022-08-07T02:21:24.093Z,19.05
2022-08-07T02:24:20.092Z,20.30
2022-08-07T02:27:09.109Z,20.23
2022-08-07T02:29:43.514Z,18.42
2022-08-07T02:33:00.587Z,19.42
2022-08-07T02:36:26.929Z,19.40
2022-08-07T02:38:50.693Z,19.33
2022-08-07T02:41:38.135Z,19.38
2022-08-07T02:44:34.234Z,17.33
2022-08-07T02:47:19.599Z,20.85
2022-08-07T02:50:07.105Z,18.70
2022-08-07T02:52:55.098Z,21.60
2022-08-07T02:56:04.076Z,19.42
2022-08-07T02:58:47.379Z,20.15
2022-08-07T03:01:36.438Z,22.08
2022-08-07T03:04:23.149Z,21.23
2022-08-07T03:07:11.131Z,20.88
2022-08-07T03:09:48.259Z,20.45
2022-08-07T03:12:37.125Z,22.98
2022-08-07T03:15:30.214Z,20.27
2022-08-07T03:18:20.346Z,21.75
2022-08-07T03:21:04.123Z,22.40
2022-08-07T03:24:26.002Z,20.95
2022-08-07T03:26:51.024Z,21.25
2022-08-07T03:29:49.318Z,21.75
2022-08-07T03:32:36.131Z,21.90
2022-08-07T03:35:26.313Z,19.70
2022-08-07T03:38:04.754Z,20.60
2022-08-07T03:40:57.229Z,20.65
2022-08-07T03:43:39.121Z,21.08
2022-08-07T03:46:33.133Z,19.83
2022-08-07T03:49:14.125Z,21.45
2022-08-07T03:52:22.300Z,20.70
2022-08-07T03:55:11.130Z,20.27
2022-08-07T03:58:33.180Z,21.02
2022-08-07T04:00:59.435Z,20.65
2022-08-07T04:03:54.038Z,21.25
2022-08-07T04:06:44.207Z,19.65
2022-08-07T04:09:19.448Z,20.05
2022-08-07T04:12:24.309Z,19.33
2022-08-07T04:15:11.132Z,19.38
2022-08-07T04:18:59.067Z,21.20
2022-08-07T04:21:07.453Z,20.17
2022-08-07T04:24:05.950Z,21.23
2022-08-07T04:26:47.144Z,19.95
2022-08-07T04:29:27.159Z,19.45
2022-08-07T04:32:15.321Z,19.30
2022-08-07T04:35:03.951Z,19.83
2022-08-07T04:38:03.815Z,17.92
2022-08-07T04:41:01.157Z,18.52
2022-08-07T04:44:11.862Z,19.63
2022-08-07T04:47:57.211Z,17.52
2022-08-07T04:50:58.194Z,18.73
2022-08-07T04:54:05.487Z,17.98
2022-08-07T04:58:11.440Z,18.63
2022-08-07T05:00:30.125Z,18.17
2022-08-07T05:03:17.129Z,18.88
2022-08-07T05:06:20.097Z,17.05
2022-08-07T05:09:10.321Z,21.23
2022-08-07T05:12:02.547Z,17.48
2022-08-07T05:15:03.419Z,17.38
2022-08-07T05:18:08.625Z,17.25
2022-08-07T05:21:05.205Z,17.40
2022-08-07T05:24:02.325Z,19.10
2022-08-07T05:26:50.171Z,17.05
2022-08-07T05:29:25.269Z,17.15
2022-08-07T05:32:27.199Z,17.35
2022-08-07T05:35:02.319Z,18.55
2022-08-07T05:37:43.209Z,20.02
2022-08-07T05:40:24.207Z,19.20
2022-08-07T05:43:03.362Z,18.92
2022-08-07T05:45:57.185Z,18.50
2022-08-07T05:48:30.256Z,18.50
2022-08-07T05:51:18.198Z,18.83
2022-08-07T05:54:12.271Z,19.73
2022-08-07T05:56:55.201Z,18.63
2022-08-07T05:59:38.928Z,18.00
2022-08-07T06:02:39.210Z,19.10
2022-08-07T06:05:28.186Z,20.35
2022-08-07T06:08:14.647Z,19.00
2022-08-07T06:11:11.205Z,18.63
2022-08-07T06:14:12.653Z,17.92
2022-08-07T06:16:56.491Z,18.58
2022-08-07T06:19:47.782Z,19.02
2022-08-07T06:22:40.390Z,19.08
2022-08-07T06:25:14.280Z,18.75
2022-08-07T06:28:14.891Z,16.50
2022-08-07T06:30:52.992Z,18.67
2022-08-07T06:33:40.213Z,18.90
2022-08-07T06:36:35.366Z,18.30
2022-08-07T06:40:16.506Z,18.35
2022-08-07T06:42:34.888Z,18.52
2022-08-07T06:45:31.229Z,18.10
2022-08-07T06:48:25.269Z,18.92
2022-08-07T06:51:07.855Z,19.63
2022-08-07T06:55:27.766Z,20.95
2022-08-07T06:56:57.223Z,20.38
2022-08-07T07:00:14.211Z,17.55
2022-08-07T07:03:13.697Z,19.60
2022-08-07T07:06:05.324Z,20.83
2022-08-07T07:08:39.874Z,20.35
2022-08-07T07:12:08.441Z,17.17
2022-08-07T07:14:31.334Z,18.00
2022-08-07T07:17:28.793Z,18.02
2022-08-07T07:20:18.366Z,19.33
2022-08-07T07:24:06.052Z,18.25
2022-08-07T07:26:34.318Z,17.60
2022-08-07T07:29:56.456Z,17.30
2022-08-07T07:32:26.241Z,18.13
2022-08-07T07:35:23.260Z,17.77
2022-08-07T07:38:20.259Z,17.35
2022-08-07T07:41:19.262Z,17.27
2022-08-07T07:44:17.161Z,18.50
2022-08-07T07:47:14.067Z,17.85
2022-08-07T07:50:32.676Z,17.08
2022-08-07T07:53:20.156Z,17.90
2022-08-07T07:56:06.332Z,19.65
2022-08-07T07:58:56.253Z,17.80
2022-08-07T08:02:01.700Z,18.55
2022-08-07T08:04:40.337Z,16.70
2022-08-07T08:07:15.356Z,16.35
2022-08-07T08:10:09.276Z,16.30
2022-08-07T08:12:59.684Z,15.75
2022-08-07T08:15:58.546Z,17.80
2022-08-07T08:18:34.376Z,17.02
2022-08-07T08:21:55.667Z,16.77
2022-08-07T08:25:09.447Z,15.38
2022-08-07T08:28:09.277Z,16.92
2022-08-07T08:30:51.521Z,19.23
2022-08-07T08:33:49.087Z,21.33
2022-08-07T08:36:29.728Z,19.55
2022-08-07T08:39:17.337Z,18.45
2022-08-07T08:42:03.370Z,20.30
2022-08-07T08:44:59.300Z,19.55
2022-08-07T08:47:52.666Z,17.25
2022-08-07T08:50:48.300Z,16.83
2022-08-07T08:53:42.917Z,23.13
2022-08-07T08:56:47.178Z,17.02
2022-08-07T08:59:42.144Z,17.23
2022-08-07T09:02:52.367Z,21.65
2022-08-07T09:06:01.305Z,17.85
2022-08-07T09:09:13.568Z,15.98
2022-08-07T09:12:31.056Z,17.38
2022-08-07T09:16:21.764Z,16.40
2022-08-07T09:19:44.858Z,16.58
2022-08-07T09:24:32.505Z,14.80
2022-08-07T09:25:39.480Z,16.65
2022-08-07T09:30:02.249Z,17.38
2022-08-07T09:31:48.474Z,16.40
2022-08-07T09:36:02.952Z,17.13
2022-08-07T09:38:37.336Z,16.42
2022-08-07T09:41:18.331Z,15.63
2022-08-07T09:44:19.457Z,17.02
2022-08-07T09:47:55.997Z,15.85
2022-08-07T09:51:25.956Z,17.00
2022-08-07T09:54:27.208Z,15.35
2022-08-07T09:57:20.347Z,15.82
2022-08-07T10:00:14.497Z,16.20
2022-08-07T10:04:03.081Z,16.25
2022-08-07T10:07:00.343Z,16.80
2022-08-07T10:10:12.129Z,16.13
2022-08-07T10:14:00.243Z,16.55
2022-08-07T10:17:02.368Z,16.92
2022-08-07T10:20:20.582Z,16.52
2022-08-07T10:24:06.373Z,16.63
2022-08-07T10:27:10.337Z,15.88
2022-08-07T10:30:19.396Z,15.45
2022-08-07T10:34:05.994Z,16.65
2022-08-07T10:36:55.358Z,16.33
2022-08-07T10:40:05.935Z,17.55
2022-08-07T10:43:34.526Z,16.70
2022-08-07T10:46:56.355Z,16.30
2022-08-07T10:49:49.095Z,14.93
2022-08-07T10:52:50.843Z,14.20
2022-08-07T10:55:38.068Z,15.98
2022-08-07T10:59:02.371Z,17.10
2022-08-07T11:02:02.530Z,17.67
2022-08-07T11:05:05.488Z,15.18
2022-08-07T11:07:59.645Z,17.00
2022-08-07T11:10:59.866Z,16.75
2022-08-07T11:14:43.410Z,16.17
2022-08-07T11:16:45.874Z,16.25
2022-08-07T11:19:47.378Z,15.10
2022-08-07T11:22:46.621Z,14.77
2022-08-07T11:25:50.228Z,15.75
2022-08-07T11:28:53.520Z,15.05
2022-08-07T11:31:45.373Z,14.57
2022-08-07T11:34:56.415Z,15.00
2022-08-07T11:38:10.071Z,17.95
2022-08-07T11:40:53.468Z,17.30
2022-08-07T11:44:12.073Z,16.98
2022-08-07T11:47:14.401Z,16.05
2022-08-07T11:50:35.393Z,17.05
2022-08-07T11:53:35.261Z,16.70
2022-08-07T11:56:26.641Z,15.73
2022-08-07T12:00:10.139Z,17.13
2022-08-07T12:03:44.998Z,15.60
2022-08-07T12:06:59.035Z,15.15
2022-08-07T12:09:43.560Z,14.88
2022-08-07T12:12:42.407Z,15.73
2022-08-07T12:15:46.467Z,17.67
2022-08-07T12:18:55.402Z,15.60
2022-08-07T12:22:36.393Z,17.40
2022-08-07T12:26:02.869Z,17.10
2022-08-07T12:28:55.480Z,15.75
2022-08-07T12:32:12.422Z,15.13
2022-08-07T12:35:00.852Z,15.70
2022-08-07T12:38:10.806Z,15.20
2022-08-07T12:40:48.603Z,15.18
2022-08-07T12:44:03.650Z,16.40
2022-08-07T12:46:55.460Z,14.70
2022-08-07T12:50:04.843Z,15.73
2022-08-07T12:53:19.030Z,16.13
2022-08-07T12:56:37.438Z,16.10
2022-08-07T12:59:54.502Z,15.30
2022-08-07T13:02:50.443Z,16.50
2022-08-07T13:06:04.013Z,16.50
2022-08-07T13:10:21.920Z,16.02
2022-08-07T13:12:47.434Z,16.20
2022-08-07T13:15:35.567Z,15.10
2022-08-07T13:18:41.467Z,15.73
2022-08-07T13:21:37.404Z,15.93
2022-08-07T13:25:02.624Z,16.52
2022-08-07T13:28:11.617Z,16.92
2022-08-07T13:31:06.422Z,17.45
2022-08-07T13:34:34.688Z,16.85
2022-08-07T13:37:19.913Z,16.35
2022-08-07T13:40:42.666Z,15.68
2022-08-07T13:43:21.752Z,15.50
2022-08-07T13:46:23.227Z,15.70
2022-08-07T13:50:33.118Z,16.30
2022-08-07T13:52:32.343Z,18.45
2022-08-07T13:55:26.907Z,16.60
2022-08-07T13:58:31.643Z,15.65
2022-08-07T14:01:26.512Z,16.10
2022-08-07T14:04:09.476Z,15.15
2022-08-07T14:07:05.501Z,16.52
2022-08-07T14:10:21.682Z,16.88
2022-08-07T14:13:10.478Z,15.52
2022-08-07T14:16:15.142Z,15.18
2022-08-07T14:18:58.490Z,16.40
2022-08-07T14:22:04.027Z,16.27
2022-08-07T14:24:48.617Z,15.23
2022-08-07T14:28:10.987Z,15.52
2022-08-07T14:30:45.804Z,15.40
2022-08-07T14:33:45.082Z,15.38
2022-08-07T14:36:27.506Z,16.10
2022-08-07T14:40:17.515Z,16.13
2022-08-07T14:42:34.501Z,16.95
2022-08-07T14:48:21.500Z,16.40
2022-08-07T14:51:16.291Z,16.10
2022-08-07T14:54:30.918Z,15.35
2022-08-07T14:57:08.500Z,17.52
2022-08-07T15:02:56.703Z,16.75
2022-08-07T15:08:54.581Z,17.08
2022-08-07T15:11:54.514Z,14.73
2022-08-07T15:14:57.667Z,16.27
2022-08-07T15:17:56.534Z,14.35
2022-08-07T15:20:54.931Z,15.20
2022-08-07T15:25:14.890Z,15.57
2022-08-07T15:26:44.748Z,15.98
2022-08-07T15:30:09.265Z,15.27
2022-08-07T15:32:39.570Z,16.63
2022-08-07T15:36:00.702Z,16.88
2022-08-07T15:38:59.099Z,14.25
2022-08-07T15:44:52.670Z,14.40
2022-08-07T15:51:01.918Z,13.48
2022-08-07T15:53:53.118Z,14.93
2022-08-07T15:56:41.653Z,16.35
2022-08-07T15:59:38.929Z,16.08
2022-08-07T16:02:40.562Z,14.88
2022-08-07T16:05:36.551Z,15.98
2022-08-07T16:08:38.443Z,14.70
2022-08-07T16:11:41.667Z,14.48
2022-08-07T16:14:36.633Z,16.77
2022-08-07T16:18:01.296Z,13.73
2022-08-07T16:22:01.477Z,13.98
2022-08-07T16:24:34.275Z,14.85
2022-08-07T16:27:18.785Z,15.25
2022-08-07T16:30:30.131Z,13.93
2022-08-07T16:34:01.992Z,15.00
2022-08-07T16:37:00.158Z,15.52
2022-08-07T16:40:28.974Z,15.65
2022-08-07T16:43:13.719Z,13.77
2022-08-07T16:50:28.561Z,15.70
2022-08-07T16:53:56.961Z,15.00
2022-08-07T16:56:53.339Z,14.48
2022-08-07T16:59:54.604Z,16.88
2022-08-07T17:03:59.429Z,16.20
2022-08-07T17:06:31.036Z,14.02
2022-08-07T17:10:06.852Z,14.43
2022-08-07T17:13:08.615Z,13.95
2022-08-07T17:16:27.588Z,13.40
2022-08-07T17:19:15.561Z,14.88
2022-08-07T17:22:14.579Z,15.32
2022-08-07T17:24:47.658Z,13.45
2022-08-07T17:27:58.628Z,14.48
2022-08-07T17:30:48.942Z,17.65
2022-08-07T17:34:15.545Z,19.15
2022-08-07T17:36:57.484Z,15.10
2022-08-07T17:39:58.514Z,14.15
2022-08-07T17:42:58.295Z,14.98
2022-08-07T17:46:15.622Z,16.17
2022-08-07T17:49:23.898Z,15.20
2022-08-07T17:52:20.610Z,14.65
2022-08-07T17:56:00.078Z,14.30
2022-08-07T17:58:46.445Z,16.58
2022-08-07T18:01:36.807Z,16.33
2022-08-07T18:04:41.630Z,16.95
2022-08-07T18:07:50.600Z,14.75
2022-08-07T18:12:07.969Z,15.68
2022-08-07T18:14:44.974Z,16.00
2022-08-07T18:18:45.957Z,15.10
2022-08-07T18:21:42.280Z,14.95
2022-08-07T18:24:37.622Z,16.65
2022-08-07T18:27:58.611Z,17.63
2022-08-07T18:30:50.626Z,15.98
2022-08-07T18:33:55.273Z,15.77
2022-08-07T18:36:54.624Z,17.15
2022-08-07T18:40:06.871Z,15.38
2022-08-07T18:43:15.950Z,16.45
2022-08-07T18:46:27.522Z,16.27
2022-08-07T18:50:31.092Z,16.27
2022-08-07T18:53:12.851Z,17.02
2022-08-07T18:57:06.154Z,20.55
2022-08-07T19:00:32.439Z,21.70
2022-08-07T19:03:40.725Z,17.95
2022-08-07T19:06:35.646Z,17.55
2022-08-07T19:09:57.593Z,18.42
2022-08-07T19:12:53.601Z,16.35
2022-08-07T19:16:04.612Z,19.95
2022-08-07T19:19:38.659Z,20.00
2022-08-07T19:22:33.717Z,17.52
2022-08-07T19:26:22.649Z,18.73
2022-08-07T19:30:57.628Z,17.50
2022-08-07T19:32:07.955Z,17.98
2022-08-07T19:35:01.655Z,18.25
2022-08-07T19:37:55.389Z,17.75
2022-08-07T19:40:50.162Z,15.95
2022-08-07T19:43:45.611Z,17.98
2022-08-07T19:46:55.618Z,18.77
2022-08-07T19:49:56.691Z,15.52
2022-08-07T19:52:39.664Z,18.02
2022-08-07T19:55:15.776Z,17.23
2022-08-07T19:58:14.179Z,17.42
2022-08-07T20:01:01.677Z,18.30
2022-08-07T20:03:55.754Z,19.67
2022-08-07T20:06:49.666Z,16.92
2022-08-07T20:10:35.351Z,18.45
2022-08-07T20:12:59.682Z,18.08
2022-08-07T20:15:37.290Z,16.70
2022-08-07T20:18:32.735Z,16.38
2022-08-07T20:21:22.352Z,20.02
2022-08-07T20:24:10.804Z,18.42
2022-08-07T20:26:55.777Z,16.30
2022-08-07T20:29:58.387Z,16.92
2022-08-07T20:32:54.690Z,17.75
2022-08-07T20:36:03.133Z,17.98
2022-08-07T20:38:59.439Z,18.05
2022-08-07T20:41:38.493Z,17.15
2022-08-07T20:44:42.707Z,19.02
2022-08-07T20:47:55.947Z,16.38
2022-08-07T20:50:32.806Z,16.92
2022-08-07T20:53:26.011Z,17.48
2022-08-07T20:56:16.784Z,16.83
2022-08-07T21:00:05.593Z,19.13
2022-08-07T21:02:14.712Z,19.92
2022-08-07T21:05:52.853Z,17.08
2022-08-07T21:08:42.707Z,18.30
2022-08-07T21:11:40.136Z,18.45
2022-08-07T21:14:34.944Z,19.38
2022-08-07T21:18:06.219Z,18.67
2022-08-07T21:20:48.008Z,17.98
2022-08-07T21:24:07.718Z,20.17
2022-08-07T21:26:57.825Z,17.60
2022-08-07T21:30:07.714Z,18.15
2022-08-07T21:32:50.253Z,19.17
2022-08-07T21:36:06.585Z,17.40
2022-08-07T21:39:48.037Z,17.23
2022-08-07T21:42:54.077Z,16.73
2022-08-07T21:46:24.996Z,17.67
2022-08-07T21:49:40.686Z,18.92
2022-08-07T21:53:08.694Z,18.33
2022-08-07T21:56:36.558Z,19.73
2022-08-07T22:00:04.183Z,16.23
2022-08-07T22:02:59.742Z,16.75
2022-08-07T22:06:03.745Z,17.10
2022-08-07T22:09:01.737Z,20.38
2022-08-07T22:12:05.020Z,20.25
2022-08-07T22:16:39.029Z,20.27
2022-08-07T22:18:19.739Z,21.35
2022-08-07T22:22:02.203Z,19.50
2022-08-07T22:24:56.766Z,17.33
2022-08-07T22:28:07.697Z,19.80
2022-08-07T22:31:11.742Z,17.90
2022-08-07T22:34:28.630Z,19.05
2022-08-07T22:38:03.286Z,20.92
2022-08-07T22:41:03.762Z,20.10
2022-08-07T22:44:00.886Z,16.80
2022-08-07T22:47:04.530Z,17.67
2022-08-07T22:49:54.549Z,18.83
2022-08-07T22:53:02.754Z,19.05
2022-08-07T22:56:04.752Z,18.05
2022-08-07T22:59:22.791Z,20.52
2022-08-07T23:02:21.747Z,19.50
2022-08-07T23:06:09.777Z,20.65
2022-08-07T23:08:47.258Z,17.45
2022-08-07T23:11:59.428Z,19.27
2022-08-07T23:14:52.862Z,19.23
2022-08-07T23:17:51.778Z,19.67
2022-08-07T23:20:40.763Z,20.02
2022-08-07T23:24:06.492Z,20.48
2022-08-07T23:27:05.765Z,19.15
2022-08-07T23:30:38.574Z,18.38
2022-08-07T23:34:34.105Z,19.80
2022-08-07T23:37:37.934Z,19.00
2022-08-07T23:40:53.772Z,19.00
2022-08-07T23:44:03.778Z,18.15
2022-08-07T23:47:29.848Z,19.25
2022-08-07T23:50:54.685Z,17.05
2022-08-07T23:53:49.789Z,18.83
2022-08-07T23:57:09.791Z,16.63
